Wilson Mersin — P3PA6 — position and weather

sailwx.info

Track history (hours):
 
Tides and Currents Weather Stations Pressure Air Temp Water Temp Dewpoint Dewpoint Depression Visibility Wind Speed Wind Dir Waves Ship Positions

Wilson Mersin

Last reported at 2014-Oct-29 08:16 UTC. Time now 2014-Oct-31 16:35 UTC.
Position N 54°42' E 020°28'.

Length 107 m; draft 7.1 m.

Type: Cargo ship. MMSI: 210072000.

Date/timePositionNaut miles runAvg speedWind from/ knotsBaromVisibWave heightAir tempDewpointWater temp
2014-Oct-29 08:16N 54°42' E 020°28'0 0.0
2014-Oct-29 07:31N 54°42' E 020°28'0 0.0
2014-Oct-29 04:16N 54°42' E 020°28'0 0.0
2014-Oct-28 23:28N 54°42' E 020°28'0 0.0
2014-Oct-28 22:28N 54°42' E 020°28'0 0.2
2014-Oct-28 20:33N 54°42' E 020°28'5 5.1
2014-Oct-28 19:33N 54°41' E 020°19'15 7.4
2014-Oct-28 17:33N 54°38' E 019°55'4 3.7
2014-Oct-28 16:33N 54°39' E 019°49'0 0.4
2014-Oct-28 15:33N 54°39' E 019°49'0 0.0
2014-Oct-28 14:33N 54°39' E 019°49'0 0.0
2014-Oct-28 13:27N 54°39' E 019°49'0 0.0
2014-Oct-28 12:33N 54°39' E 019°49'0 0.0
2014-Oct-28 11:33N 54°39' E 019°49'0 0.0
2014-Oct-28 10:33N 54°39' E 019°49'0 0.0
2014-Oct-28 09:33N 54°39' E 019°49'0 0.0
2014-Oct-28 08:33N 54°39' E 019°49'2 1.5
2014-Oct-28 07:33N 54°40' E 019°47'1111.3
2014-Oct-28 06:33N 54°45' E 019°30'1312.7
2014-Oct-28 05:33N 54°49' E 019°09'1312.7
2014-Oct-28 04:33N 54°52' E 018°47'1212.3
2014-Oct-28 03:33N 54°53' E 018°26'1312.6
2014-Oct-28 02:31N 54°53' E 018°04'1212.7
2014-Oct-28 01:33N 54°54' E 017°42'1312.7
2014-Oct-28 00:31N 54°53' E 017°20'1412.5
2014-Oct-27 23:25N 54°49' E 016°56'6412.6
2014-Oct-27 18:21N 54°52' E 015°06'1113.0
2014-Oct-27 17:32N 54°54' E 014°47'1212.6
2014-Oct-27 16:33N 54°55' E 014°26'1312.6
2014-Oct-27 15:33N 54°57' E 014°04'1313.0
2014-Oct-27 14:33N 55°02' E 013°43'2712.6
2014-Oct-27 12:23N 55°13' E 012°59'1012.5
2014-Oct-27 11:33N 55°17' E 012°43'1010.3
2014-Oct-27 10:33N 55°27' E 012°40'1212.0
2014-Oct-27 09:33N 55°39' E 012°41'1111.3
2014-Oct-27 08:33N 55°50' E 012°41'1110.8
2014-Oct-27 07:33N 56°01' E 012°38'1111.5
2014-Oct-27 06:33N 56°10' E 012°25'1312.8
2014-Oct-27 05:33N 56°17' E 012°06'2412.1
2014-Oct-27 03:33N 56°40' E 011°54'1212.0
2014-Oct-27 02:33N 56°52' E 011°48'1512.1
2014-Oct-27 01:21N 57°06' E 011°39'1011.8
2014-Oct-27 00:32N 57°15' E 011°33'1111.3
2014-Oct-26 23:33N 57°25' E 011°26'1211.8
2014-Oct-26 22:33N 57°34' E 011°12'1312.8
2014-Oct-26 21:33N 57°43' E 010°54'1312.6
2014-Oct-26 20:33N 57°47' E 010°32'13711.4
2014-Oct-26 08:33N 58°07' E 006°17'1110.6
2014-Oct-26 07:33N 58°14' E 006°02'1010.3
2014-Oct-26 06:33N 58°21' E 005°48'10 9.6
2014-Oct-26 05:33N 58°28' E 005°35'20 9.7
2014-Oct-26 03:31N 58°45' E 005°16'1010.0
2014-Oct-26 02:33N 58°53' E 005°06'1110.5
2014-Oct-26 01:31N 59°03' E 004°56'6 0.2
2014-Oct-24 16:21N 59°08' E 004°50'1113.8
2014-Oct-24 15:33N 58°59' E 005°01'1313.2
2014-Oct-24 14:33N 58°47' E 005°14'1513.7
2014-Oct-24 13:28N 58°34' E 005°28'1213.7
2014-Oct-24 12:33N 58°24' E 005°42'1413.9
2014-Oct-24 11:33N 58°15' E 006°02'1413.7
2014-Oct-24 10:33N 58°06' E 006°21'12512.3
2014-Oct-24 00:22N 57°49' E 010°15'1112.9
2014-Oct-23 23:33N 57°49' E 010°35'1111.3
2014-Oct-23 22:33N 57°45' E 010°55'1313.2
2014-Oct-23 21:33N 57°35' E 011°12'1313.6
2014-Oct-23 20:33N 57°25' E 011°29'1414.3
2014-Oct-23 19:33N 57°12' E 011°38'1414.1
2014-Oct-23 18:33N 56°58' E 011°45'1413.5
2014-Oct-23 17:33N 56°45' E 011°54'1413.9
2014-Oct-23 16:32N 56°32' E 011°60'1313.4
2014-Oct-23 15:33N 56°21' E 012°13'1414.2
2014-Oct-23 14:33N 56°10' E 012°29'1414.2
2014-Oct-23 13:34N 55°57' E 012°42'1 1.0
2014-Oct-23 12:32N 55°56' E 012°41'0 0.0
2014-Oct-23 11:29N 55°56' E 012°41'0 0.0
2014-Oct-23 10:32N 55°56' E 012°41'0 0.0
2014-Oct-23 09:32N 55°56' E 012°41'0 0.0
2014-Oct-23 08:32N 55°56' E 012°41'0 0.0
2014-Oct-23 07:32N 55°56' E 012°41'0 0.0
2014-Oct-23 06:29N 55°56' E 012°41'0 0.0
2014-Oct-23 05:32N 55°56' E 012°41'0 0.0
2014-Oct-23 04:32N 55°56' E 012°41'0 0.0
2014-Oct-23 03:32N 55°56' E 012°41'0 0.0
2014-Oct-23 02:32N 55°56' E 012°41'0 0.0
2014-Oct-23 01:32N 55°56' E 012°41'0 0.0
2014-Oct-23 00:32N 55°56' E 012°41'0 0.0
2014-Oct-22 23:32N 55°56' E 012°41'0 0.0
2014-Oct-22 22:32N 55°56' E 012°41'0 0.0
2014-Oct-22 21:29N 55°56' E 012°41'0 0.0
2014-Oct-22 20:32N 55°56' E 012°41'0 0.0
2014-Oct-22 19:32N 55°56' E 012°41'0 0.0
2014-Oct-22 18:32N 55°56' E 012°41'0 0.0
2014-Oct-22 17:32N 55°56' E 012°41'0 0.0
2014-Oct-22 16:32N 55°56' E 012°41'0 0.0
2014-Oct-22 15:32N 55°56' E 012°41'0 0.0
2014-Oct-22 14:29N 55°56' E 012°41'0 0.0
2014-Oct-22 13:32N 55°56' E 012°41'0 0.0
2014-Oct-22 12:32N 55°56' E 012°41'0 0.0
2014-Oct-22 11:32N 55°56' E 012°41'0 0.0
2014-Oct-22 10:32N 55°56' E 012°41'0 0.0
2014-Oct-22 09:32N 55°56' E 012°41'0 0.0
2014-Oct-22 08:32N 55°56' E 012°41'0 0.0
2014-Oct-22 07:32N 55°56' E 012°41'0 0.0
2014-Oct-22 06:32N 55°56' E 012°41'0 0.0
2014-Oct-22 05:32N 55°56' E 012°41'0 0.0
2014-Oct-22 04:32N 55°56' E 012°41'0 0.0
2014-Oct-22 03:32N 55°56' E 012°41'0 0.0
2014-Oct-22 02:32N 55°56' E 012°41'0 0.0
2014-Oct-22 01:32N 55°56' E 012°41'0 0.0
2014-Oct-22 00:32N 55°56' E 012°41'0 0.0
2014-Oct-21 23:32N 55°56' E 012°41'0 0.0
2014-Oct-21 22:32N 55°56' E 012°41'0 0.0
2014-Oct-21 21:32N 55°56' E 012°41'0 0.0
2014-Oct-21 20:32N 55°56' E 012°41'0 0.0
2014-Oct-21 19:32N 55°56' E 012°41'0 0.0
2014-Oct-21 18:32N 55°56' E 012°41'0 0.0
2014-Oct-21 17:32N 55°56' E 012°41'0 0.0
2014-Oct-21 16:32N 55°56' E 012°41'0 0.0
2014-Oct-21 15:32N 55°56' E 012°41'0 0.0
2014-Oct-21 14:32N 55°56' E 012°41'0 0.1
2014-Oct-21 13:32N 55°56' E 012°41'0 0.0
2014-Oct-21 12:32N 55°56' E 012°41'0 0.0
2014-Oct-21 11:32N 55°56' E 012°41'0 0.0
2014-Oct-21 10:32N 55°56' E 012°41'0 0.0
2014-Oct-21 09:32N 55°56' E 012°41'0 0.0
2014-Oct-21 08:32N 55°56' E 012°41'0 0.0
2014-Oct-21 07:32N 55°56' E 012°41'0 0.0
2014-Oct-21 06:32N 55°56' E 012°41'0 0.0
2014-Oct-21 05:32N 55°56' E 012°41'0 0.0
2014-Oct-21 04:32N 55°56' E 012°41'0 0.0
2014-Oct-21 03:32N 55°56' E 012°41'0 0.0
2014-Oct-21 02:32N 55°56' E 012°41'0 0.0
2014-Oct-21 01:32N 55°56' E 012°41'0 0.0
2014-Oct-21 00:32N 55°56' E 012°41'0 0.0
2014-Oct-20 23:32N 55°56' E 012°41'0 0.0
2014-Oct-20 22:29N 55°56' E 012°41'0 0.0
2014-Oct-20 21:32N 55°56' E 012°41'0 0.0
2014-Oct-20 20:32N 55°56' E 012°41'0 0.0
2014-Oct-20 19:32N 55°56' E 012°41'0 0.0
2014-Oct-20 18:32N 55°56' E 012°41'0 0.0
2014-Oct-20 17:32N 55°56' E 012°41'0 0.0
2014-Oct-20 16:32N 55°56' E 012°41'0 0.0
2014-Oct-20 15:32N 55°56' E 012°41'0 0.1
2014-Oct-20 14:32N 55°56' E 012°41'0 0.0
2014-Oct-20 13:29N 55°56' E 012°41'0 0.0
2014-Oct-20 12:32N 55°56' E 012°41'0 0.0
2014-Oct-20 11:29N 55°56' E 012°41'0 0.0
2014-Oct-20 10:29N 55°56' E 012°41'0 0.0
2014-Oct-20 09:32N 55°56' E 012°41'0 0.1
2014-Oct-20 08:32N 55°56' E 012°41'0 0.0
2014-Oct-20 07:32N 55°56' E 012°41'0 0.1
2014-Oct-20 06:32N 55°56' E 012°41'0 0.0
2014-Oct-20 05:32N 55°56' E 012°41'0 0.0
2014-Oct-20 04:32N 55°56' E 012°41'0 0.0
2014-Oct-20 03:32N 55°56' E 012°41'0 0.0
2014-Oct-20 02:32N 55°56' E 012°41'0 0.0
2014-Oct-20 01:32N 55°56' E 012°41'0 0.0
2014-Oct-20 00:32N 55°56' E 012°41'0 0.0
2014-Oct-19 23:29N 55°56' E 012°41'0 0.0
2014-Oct-19 22:32N 55°56' E 012°41'0 0.1
2014-Oct-19 21:29N 55°56' E 012°41'0 0.0
2014-Oct-19 20:32N 55°56' E 012°41'0 0.0
2014-Oct-19 19:29N 55°56' E 012°41'0 0.0
2014-Oct-19 18:32N 55°56' E 012°41'0 0.0
2014-Oct-19 17:32N 55°56' E 012°41'0 0.0
2014-Oct-19 16:32N 55°56' E 012°41'0 0.0
2014-Oct-19 15:29N 55°56' E 012°41'0 0.0
2014-Oct-19 14:32N 55°56' E 012°41'0 0.0
2014-Oct-19 13:32N 55°56' E 012°41'0 0.0
2014-Oct-19 12:26N 55°56' E 012°41'0 0.0
2014-Oct-19 11:32N 55°56' E 012°41'0 0.0
2014-Oct-19 10:29N 55°56' E 012°41'0 0.0
2014-Oct-19 09:32N 55°56' E 012°41'0 0.0
2014-Oct-19 08:32N 55°56' E 012°41'  
Track history (hours):
 
Tides and Currents Weather Stations Pressure Air Temp Water Temp Dewpoint Dewpoint Depression Visibility Wind Speed Wind Dir Waves Ship Positions

Wilson Mersin

Last reported at 2014-Oct-29 08:16 UTC. Time now 2014-Oct-31 16:35 UTC.
Position N 54°42' E 020°28'.

Length 107 m; draft 7.1 m.

Type: Cargo ship. MMSI: 210072000.

Date/timePositionNaut miles runAvg speedWind from/ knotsBaromVisibWave heightAir tempDewpointWater temp
2014-Oct-29 08:16N 54°42' E 020°28'0 0.0
2014-Oct-29 07:31N 54°42' E 020°28'0 0.0
2014-Oct-29 04:16N 54°42' E 020°28'0 0.0
2014-Oct-28 23:28N 54°42' E 020°28'0 0.0
2014-Oct-28 22:28N 54°42' E 020°28'0 0.2
2014-Oct-28 20:33N 54°42' E 020°28'5 5.1
2014-Oct-28 19:33N 54°41' E 020°19'15 7.4
2014-Oct-28 17:33N 54°38' E 019°55'4 3.7
2014-Oct-28 16:33N 54°39' E 019°49'0 0.4
2014-Oct-28 15:33N 54°39' E 019°49'0 0.0
2014-Oct-28 14:33N 54°39' E 019°49'0 0.0
2014-Oct-28 13:27N 54°39' E 019°49'0 0.0
2014-Oct-28 12:33N 54°39' E 019°49'0 0.0
2014-Oct-28 11:33N 54°39' E 019°49'0 0.0
2014-Oct-28 10:33N 54°39' E 019°49'0 0.0
2014-Oct-28 09:33N 54°39' E 019°49'0 0.0
2014-Oct-28 08:33N 54°39' E 019°49'2 1.5
2014-Oct-28 07:33N 54°40' E 019°47'1111.3
2014-Oct-28 06:33N 54°45' E 019°30'1312.7
2014-Oct-28 05:33N 54°49' E 019°09'1312.7
2014-Oct-28 04:33N 54°52' E 018°47'1212.3
2014-Oct-28 03:33N 54°53' E 018°26'1312.6
2014-Oct-28 02:31N 54°53' E 018°04'1212.7
2014-Oct-28 01:33N 54°54' E 017°42'1312.7
2014-Oct-28 00:31N 54°53' E 017°20'1412.5
2014-Oct-27 23:25N 54°49' E 016°56'6412.6
2014-Oct-27 18:21N 54°52' E 015°06'1113.0
2014-Oct-27 17:32N 54°54' E 014°47'1212.6
2014-Oct-27 16:33N 54°55' E 014°26'1312.6
2014-Oct-27 15:33N 54°57' E 014°04'1313.0
2014-Oct-27 14:33N 55°02' E 013°43'2712.6
2014-Oct-27 12:23N 55°13' E 012°59'1012.5
2014-Oct-27 11:33N 55°17' E 012°43'1010.3
2014-Oct-27 10:33N 55°27' E 012°40'1212.0
2014-Oct-27 09:33N 55°39' E 012°41'1111.3
2014-Oct-27 08:33N 55°50' E 012°41'1110.8
2014-Oct-27 07:33N 56°01' E 012°38'1111.5
2014-Oct-27 06:33N 56°10' E 012°25'1312.8
2014-Oct-27 05:33N 56°17' E 012°06'2412.1
2014-Oct-27 03:33N 56°40' E 011°54'1212.0
2014-Oct-27 02:33N 56°52' E 011°48'1512.1
2014-Oct-27 01:21N 57°06' E 011°39'1011.8
2014-Oct-27 00:32N 57°15' E 011°33'1111.3
2014-Oct-26 23:33N 57°25' E 011°26'1211.8
2014-Oct-26 22:33N 57°34' E 011°12'1312.8
2014-Oct-26 21:33N 57°43' E 010°54'1312.6
2014-Oct-26 20:33N 57°47' E 010°32'13711.4
2014-Oct-26 08:33N 58°07' E 006°17'1110.6
2014-Oct-26 07:33N 58°14' E 006°02'1010.3
2014-Oct-26 06:33N 58°21' E 005°48'10 9.6
2014-Oct-26 05:33N 58°28' E 005°35'20 9.7
2014-Oct-26 03:31N 58°45' E 005°16'1010.0
2014-Oct-26 02:33N 58°53' E 005°06'1110.5
2014-Oct-26 01:31N 59°03' E 004°56'6 0.2
2014-Oct-24 16:21N 59°08' E 004°50'1113.8
2014-Oct-24 15:33N 58°59' E 005°01'1313.2
2014-Oct-24 14:33N 58°47' E 005°14'1513.7
2014-Oct-24 13:28N 58°34' E 005°28'1213.7
2014-Oct-24 12:33N 58°24' E 005°42'1413.9
2014-Oct-24 11:33N 58°15' E 006°02'1413.7
2014-Oct-24 10:33N 58°06' E 006°21'12512.3
2014-Oct-24 00:22N 57°49' E 010°15'1112.9
2014-Oct-23 23:33N 57°49' E 010°35'1111.3
2014-Oct-23 22:33N 57°45' E 010°55'1313.2
2014-Oct-23 21:33N 57°35' E 011°12'1313.6
2014-Oct-23 20:33N 57°25' E 011°29'1414.3
2014-Oct-23 19:33N 57°12' E 011°38'1414.1
2014-Oct-23 18:33N 56°58' E 011°45'1413.5
2014-Oct-23 17:33N 56°45' E 011°54'1413.9
2014-Oct-23 16:32N 56°32' E 011°60'1313.4
2014-Oct-23 15:33N 56°21' E 012°13'1414.2
2014-Oct-23 14:33N 56°10' E 012°29'1414.2
2014-Oct-23 13:34N 55°57' E 012°42'1 1.0
2014-Oct-23 12:32N 55°56' E 012°41'0 0.0
2014-Oct-23 11:29N 55°56' E 012°41'0 0.0
2014-Oct-23 10:32N 55°56' E 012°41'0 0.0
2014-Oct-23 09:32N 55°56' E 012°41'0 0.0
2014-Oct-23 08:32N 55°56' E 012°41'0 0.0
2014-Oct-23 07:32N 55°56' E 012°41'0 0.0
2014-Oct-23 06:29N 55°56' E 012°41'0 0.0
2014-Oct-23 05:32N 55°56' E 012°41'0 0.0
2014-Oct-23 04:32N 55°56' E 012°41'0 0.0
2014-Oct-23 03:32N 55°56' E 012°41'0 0.0
2014-Oct-23 02:32N 55°56' E 012°41'0 0.0
2014-Oct-23 01:32N 55°56' E 012°41'0 0.0
2014-Oct-23 00:32N 55°56' E 012°41'0 0.0
2014-Oct-22 23:32N 55°56' E 012°41'0 0.0
2014-Oct-22 22:32N 55°56' E 012°41'0 0.0
2014-Oct-22 21:29N 55°56' E 012°41'0 0.0
2014-Oct-22 20:32N 55°56' E 012°41'0 0.0
2014-Oct-22 19:32N 55°56' E 012°41'0 0.0
2014-Oct-22 18:32N 55°56' E 012°41'0 0.0
2014-Oct-22 17:32N 55°56' E 012°41'0 0.0
2014-Oct-22 16:32N 55°56' E 012°41'0 0.0
2014-Oct-22 15:32N 55°56' E 012°41'0 0.0
2014-Oct-22 14:29N 55°56' E 012°41'0 0.0
2014-Oct-22 13:32N 55°56' E 012°41'0 0.0
2014-Oct-22 12:32N 55°56' E 012°41'0 0.0
2014-Oct-22 11:32N 55°56' E 012°41'0 0.0
2014-Oct-22 10:32N 55°56' E 012°41'0 0.0
2014-Oct-22 09:32N 55°56' E 012°41'0 0.0
2014-Oct-22 08:32N 55°56' E 012°41'0 0.0
2014-Oct-22 07:32N 55°56' E 012°41'0 0.0
2014-Oct-22 06:32N 55°56' E 012°41'0 0.0
2014-Oct-22 05:32N 55°56' E 012°41'0 0.0
2014-Oct-22 04:32N 55°56' E 012°41'0 0.0
2014-Oct-22 03:32N 55°56' E 012°41'0 0.0
2014-Oct-22 02:32N 55°56' E 012°41'0 0.0
2014-Oct-22 01:32N 55°56' E 012°41'0 0.0
2014-Oct-22 00:32N 55°56' E 012°41'0 0.0
2014-Oct-21 23:32N 55°56' E 012°41'0 0.0
2014-Oct-21 22:32N 55°56' E 012°41'0 0.0
2014-Oct-21 21:32N 55°56' E 012°41'0 0.0
2014-Oct-21 20:32N 55°56' E 012°41'0 0.0
2014-Oct-21 19:32N 55°56' E 012°41'0 0.0
2014-Oct-21 18:32N 55°56' E 012°41'0 0.0
2014-Oct-21 17:32N 55°56' E 012°41'0 0.0
2014-Oct-21 16:32N 55°56' E 012°41'0 0.0
2014-Oct-21 15:32N 55°56' E 012°41'0 0.0
2014-Oct-21 14:32N 55°56' E 012°41'0 0.1
2014-Oct-21 13:32N 55°56' E 012°41'0 0.0
2014-Oct-21 12:32N 55°56' E 012°41'0 0.0
2014-Oct-21 11:32N 55°56' E 012°41'0 0.0
2014-Oct-21 10:32N 55°56' E 012°41'0 0.0
2014-Oct-21 09:32N 55°56' E 012°41'0 0.0
2014-Oct-21 08:32N 55°56' E 012°41'0 0.0
2014-Oct-21 07:32N 55°56' E 012°41'0 0.0
2014-Oct-21 06:32N 55°56' E 012°41'0 0.0
2014-Oct-21 05:32N 55°56' E 012°41'0 0.0
2014-Oct-21 04:32N 55°56' E 012°41'0 0.0
2014-Oct-21 03:32N 55°56' E 012°41'0 0.0
2014-Oct-21 02:32N 55°56' E 012°41'0 0.0
2014-Oct-21 01:32N 55°56' E 012°41'0 0.0
2014-Oct-21 00:32N 55°56' E 012°41'0 0.0
2014-Oct-20 23:32N 55°56' E 012°41'0 0.0
2014-Oct-20 22:29N 55°56' E 012°41'0 0.0
2014-Oct-20 21:32N 55°56' E 012°41'0 0.0
2014-Oct-20 20:32N 55°56' E 012°41'0 0.0
2014-Oct-20 19:32N 55°56' E 012°41'0 0.0
2014-Oct-20 18:32N 55°56' E 012°41'0 0.0
2014-Oct-20 17:32N 55°56' E 012°41'0 0.0
2014-Oct-20 16:32N 55°56' E 012°41'0 0.0
2014-Oct-20 15:32N 55°56' E 012°41'0 0.1
2014-Oct-20 14:32N 55°56' E 012°41'0 0.0
2014-Oct-20 13:29N 55°56' E 012°41'0 0.0
2014-Oct-20 12:32N 55°56' E 012°41'0 0.0
2014-Oct-20 11:29N 55°56' E 012°41'0 0.0
2014-Oct-20 10:29N 55°56' E 012°41'0 0.0
2014-Oct-20 09:32N 55°56' E 012°41'0 0.1
2014-Oct-20 08:32N 55°56' E 012°41'0 0.0
2014-Oct-20 07:32N 55°56' E 012°41'0 0.1
2014-Oct-20 06:32N 55°56' E 012°41'0 0.0
2014-Oct-20 05:32N 55°56' E 012°41'0 0.0
2014-Oct-20 04:32N 55°56' E 012°41'0 0.0
2014-Oct-20 03:32N 55°56' E 012°41'0 0.0
2014-Oct-20 02:32N 55°56' E 012°41'0 0.0
2014-Oct-20 01:32N 55°56' E 012°41'0 0.0
2014-Oct-20 00:32N 55°56' E 012°41'0 0.0
2014-Oct-19 23:29N 55°56' E 012°41'0 0.0
2014-Oct-19 22:32N 55°56' E 012°41'0 0.1
2014-Oct-19 21:29N 55°56' E 012°41'0 0.0
2014-Oct-19 20:32N 55°56' E 012°41'0 0.0
2014-Oct-19 19:29N 55°56' E 012°41'0 0.0
2014-Oct-19 18:32N 55°56' E 012°41'0 0.0
2014-Oct-19 17:32N 55°56' E 012°41'0 0.0
2014-Oct-19 16:32N 55°56' E 012°41'0 0.0
2014-Oct-19 15:29N 55°56' E 012°41'0 0.0
2014-Oct-19 14:32N 55°56' E 012°41'0 0.0
2014-Oct-19 13:32N 55°56' E 012°41'0 0.0
2014-Oct-19 12:26N 55°56' E 012°41'0 0.0
2014-Oct-19 11:32N 55°56' E 012°41'0 0.0
2014-Oct-19 10:29N 55°56' E 012°41'0 0.0
2014-Oct-19 09:32N 55°56' E 012°41'0 0.0
2014-Oct-19 08:32N 55°56' E 012°41'  

Dump ship's entire track history